Latest Weather Observations for Coonabarabran Airport

IDN60801

Issued at 10:12 pm EST Thursday 16 August 2018 (issued every 10 minutes, with the page automatically refreshed every 10 minutes)

About weather observations | Map of weather stations | Latest weather observations for NSW | Other Formats
Station Details ID: 064017 Name: COONABARABRAN AIRPORT AWS Lat: -31.33 Lon: 149.27 Height: 645.0 m
Data from the previous 72 hours. | See also: Recent months at Coonabarabran Airport
Date/Time
EST
Temp
°C
App
Temp
°C
Dew
Point
°C
Rel
Hum
%
Delta-T
°C
Wind Press
QNH
hPa
Press
MSL
hPa
Rain since
9am
mm
Dir  Spd
km/h
Gust
km/h
Spd
kts
Gust
kts
16/10:00pm 9.2 4.9 -1.5 47 4.3 SW 11 15 6 8 1015.6 1015.3 0.0
16/09:30pm 9.1 4.8 -1.6 47 4.3 SW 11 15 6 8 1015.6 1015.3 0.0
16/09:00pm 9.9 5.6 -1.5 45 4.6 SW 11 19 6 10 1015.4 1015.1 0.0
16/08:30pm 10.2 5.9 -1.8 43 4.8 SW 11 13 6 7 1015.2 1014.9 0.0
16/08:00pm 10.6 6.3 -1.4 43 4.9 WSW 11 13 6 7 1015.0 1014.6 0.0
16/07:30pm 11.2 6.9 -1.5 41 5.2 WSW 11 13 6 7 1014.9 1014.5 0.0
16/07:00pm 11.9 6.9 -0.9 41 5.3 WSW 15 19 8 10 1014.6 1014.2 0.0
16/06:30pm 12.8 7.6 0.2 42 5.4 WSW 17 20 9 11 1014.3 1013.9 0.0
16/06:00pm 13.2 9.3 0.9 43 5.4 WSW 11 19 6 10 1013.8 1013.5 0.0
16/05:30pm 14.3 8.8 0.9 40 6.0 WSW 19 26 10 14 1013.5 1013.1 0.0
16/05:00pm 15.5 9.9 1.3 38 6.4 WSW 20 30 11 16 1013.2 1012.8 0.0
16/04:30pm 16.6 10.6 1.1 35 7.1 WSW 22 28 12 15 1013.2 1012.8 0.0
16/04:00pm 17.1 11.1 1.1 34 7.3 SW 22 32 12 17 1013.2 1012.8 0.0
16/03:30pm 17.7 11.7 1.2 33 7.6 SW 22 35 12 19 1013.1 1012.7 0.0
16/03:00pm 18.2 12.2 1.3 32 7.8 SW 22 33 12 18 1013.2 1012.8 0.0
16/02:30pm 18.5 12.5 1.1 31 8.0 SW 22 41 12 22 1013.3 1012.9 0.0
16/02:00pm 17.6 11.1 0.3 31 7.8 WSW 24 33 13 18 1013.4 1013.0 0.0
16/01:30pm 17.6 12.0 -0.2 30 8.0 WSW 19 28 10 15 1013.4 1013.0 0.0
16/01:00pm 18.8 13.6 -0.1 28 8.5 W 17 26 9 14 1013.7 1013.4 0.0
16/12:30pm 17.4 12.5 -0.8 29 8.0 SW 15 20 8 11 1014.0 1013.7 0.0
16/12:00pm 16.4 11.1 -0.8 31 7.5 SW 17 24 9 13 1014.4 1014.0 0.0
16/11:30am 15.5 9.4 -2.0 30 7.4 SW 20 26 11 14 1014.9 1014.5 0.0
16/11:00am 16.2 10.7 -1.8 29 7.7 SW 17 24 9 13 1014.9 1014.5 0.0
16/10:30am 18.9 13.2 0.5 29 8.4 W 20 32 11 17 1015.0 1014.6 0.0
16/10:00am 17.3 11.4 -0.9 29 8.0 W 20 30 11 16 1014.8 1014.4 0.0
16/09:30am 17.0 11.9 -2.1 27 8.2 W 15 20 8 11 1014.9 1014.5 0.0
16/09:00am 15.4 10.9 -3.0 28 7.6 W 11 15 6 8 1014.9 1014.5 0.0
16/08:30am 14.6 10.5 -3.2 29 7.3 WNW 9 13 5 7 1014.7 1014.3 0.0
16/08:00am 13.4 9.3 -3.4 31 6.7 NW 9 13 5 7 1014.9 1014.5 0.0
16/07:30am 11.8 7.6 -4.3 32 6.2 WNW 9 15 5 8 1014.8 1014.4 0.0
16/07:00am 13.2 7.4 -4.4 29 6.9 W 17 20 9 11 1014.4 1014.0 0.0
16/06:30am 11.2 5.9 -3.7 35 5.8 NW 15 19 8 10 1014.4 1014.0 0.0
16/06:00am 11.0 5.3 -3.8 35 5.7 NW 17 20 9 11 1014.3 1013.9 0.0
16/05:30am 11.4 5.7 -3.9 34 5.9 NW 17 22 9 12 1014.2 1013.8 0.0
16/05:00am 12.1 6.4 -3.7 33 6.2 NW 17 20 9 11 1013.9 1013.6 0.0
16/04:30am 11.8 6.1 -3.9 33 6.1 WNW 17 22 9 12 1014.0 1013.7 0.0
16/04:00am 12.6 6.3 -4.1 31 6.5 NW 20 22 11 12 1014.2 1013.8 0.0
16/03:30am 12.7 6.4 -4.0 31 6.6 NW 20 26 11 14 1014.2 1013.8 0.0
16/03:00am 13.3 7.2 -4.3 29 6.9 NW 19 26 10 14 1014.0 1013.7 0.0
16/02:30am 12.9 6.8 -4.2 30 6.7 WNW 19 24 10 13 1014.4 1014.0 0.0
16/02:00am 14.0 7.7 -4.2 28 7.2 NW 20 28 11 15 1014.4 1014.0 0.0
16/01:30am 13.7 7.3 -4.5 28 7.1 NW 20 26 11 14 1014.8 1014.4 0.0
16/01:00am 13.7 7.0 -4.5 28 7.1 NW 22 33 12 18 1014.9 1014.5 0.0
16/12:30am 13.7 6.6 -4.5 28 7.1 NW 24 30 13 16 1015.1 1014.8 0.0
16/12:00am 13.4 6.3 -4.7 28 7.0 NW 24 32 13 17 1015.2 1014.9 0.0
 
Date/Time
EST
Temp
°C
App
Temp
°C
Dew
Point
°C
Rel
Hum
%
Delta-T
°C
Wind Press
QNH
hPa
Press
MSL
hPa
Rain since
9am
mm
Dir  Spd
km/h
Gust
km/h
Spd
kts
Gust
kts
15/11:30pm 13.6 5.3 -4.5 28 7.1 NW 30 37 16 20 1015.2 1014.9 0.0
15/11:00pm 14.1 5.5 -4.6 27 7.4 NW 32 44 17 24 1015.0 1014.6 0.0
15/10:30pm 14.0 6.4 -5.2 26 7.4 NW 26 35 14 19 1015.4 1015.1 0.0
15/10:00pm 13.5 6.7 -5.6 26 7.3 NNW 22 28 12 15 1015.5 1015.2 0.0
15/09:30pm 13.3 6.0 -5.8 26 7.3 NNW 24 32 13 17 1015.7 1015.4 0.0
15/09:00pm 13.1 6.2 -5.9 26 7.2 NNW 22 28 12 15 1016.0 1015.6 0.0
15/08:30pm 13.6 6.3 -6.0 25 7.4 NNW 24 30 13 16 1016.3 1015.9 0.0
15/08:00pm 13.6 7.0 -6.6 24 7.6 NW 20 26 11 14 1016.5 1016.2 0.0
15/07:30pm 13.5 7.1 -6.6 24 7.5 NW 19 24 10 13 1016.4 1016.1 0.0
15/07:00pm 11.8 7.8 -6.1 28 6.6 N 7 13 4 7 1016.4 1016.1 0.0
15/06:30pm 12.6 8.2 -5.4 28 6.8 NNE 9 13 5 7 1016.3 1015.9 0.0
15/06:00pm 12.7 8.9 -5.3 28 6.9 NNE 6 15 3 8 1016.2 1015.8 0.0
15/05:30pm 14.9 10.2 -5.5 24 7.9 NNW 11 17 6 9 1016.0 1015.6 0.0
15/05:00pm 16.1 10.3 -5.0 23 8.4 NNW 17 24 9 13 1016.1 1015.7 0.0
15/04:30pm 16.6 9.7 -5.8 21 8.8 NW 22 30 12 16 1016.3 1015.9 0.0
15/04:00pm 17.3 10.0 -5.8 20 9.2 NW 24 32 13 17 1016.5 1016.2 0.0
15/03:30pm 17.5 9.1 -6.3 19 9.4 NW 30 37 16 20 1016.2 1015.8 0.0
15/03:00pm 17.7 9.2 -6.9 18 9.6 NW 30 35 16 19 1016.3 1015.9 0.0
15/02:30pm 18.5 11.2 -6.2 18 9.8 NW 24 33 13 18 1016.6 1016.3 0.0
15/02:00pm 18.9 11.7 -5.2 19 9.8 NW 24 33 13 18 1017.0 1016.7 0.0
15/01:30pm 17.8 11.3 -6.1 19 9.5 NW 20 35 11 19 1017.3 1017.0 0.0
15/01:00pm 17.8 11.6 -4.8 21 9.2 NNW 19 26 10 14 1018.1 1017.8 0.0
15/12:30pm 17.5 10.8 -3.8 23 8.8 NW 22 30 12 16 1018.7 1018.4 0.0
15/12:00pm 16.9 10.8 -3.8 24 8.5 NNW 19 28 10 15 1019.4 1019.1 0.0
15/11:30am 16.1 9.5 -3.4 26 8.0 NNW 22 32 12 17 1019.9 1019.6 0.0
15/11:00am 15.6 9.4 -2.8 28 7.6 NNW 20 26 11 14 1020.3 1020.0 0.0
15/10:30am 15.1 8.6 -2.3 30 7.3 NW 22 28 12 15 1020.4 1020.2 0.0
15/10:00am 13.7 8.5 0.0 39 5.9 NNW 17 24 9 13 1020.8 1020.5 0.0
15/09:30am 12.8 7.2 0.2 42 5.4 N 19 28 10 15 1020.8 1020.5 0.0
15/09:00am 11.9 5.8 0.7 46 4.8 NNW 22 30 12 16 1020.8 1020.5 0.0
15/08:30am 11.3 4.9 0.7 48 4.6 NNW 24 32 13 17 1020.2 1019.9 0.0
15/08:00am 9.7 4.0 0.6 53 3.8 NW 20 28 11 15 1020.2 1019.9 0.0
15/07:30am 8.3 3.1 0.3 57 3.3 NNW 17 24 9 13 1020.1 1019.8 0.0
15/07:00am 7.0 1.8 -0.2 60 2.9 NNW 17 19 9 10 1020.0 1019.7 0.0
15/06:30am 7.6 3.1 -0.1 58 3.1 NW 13 17 7 9 1019.6 1019.3 0.0
15/06:00am 6.2 1.7 -0.5 62 2.7 NNW 13 15 7 8 1019.6 1019.3 0.0
15/05:30am 5.6 1.0 -0.9 63 2.5 N 13 17 7 9 1019.6 1019.3 0.0
15/05:00am 8.0 4.2 -1.0 53 3.6 N 9 13 5 7 1019.6 1019.3 0.0
15/04:30am 6.4 2.2 -0.8 60 2.8 N 11 13 6 7 1019.7 1019.4 0.0
15/04:00am 6.0 2.3 -0.3 64 2.5 NNW 9 13 5 7 1019.7 1019.4 0.0
15/03:30am 8.7 4.9 -0.6 52 3.8 SSW 9 17 5 9 1020.0 1019.7 0.0
15/03:00am 9.3 5.6 -0.3 51 3.9 SSW 9 11 5 6 1020.4 1020.2 0.0
15/02:30am 9.4 5.6 -0.5 50 4.1 SSW 9 11 5 6 1020.8 1020.5 0.0
15/02:00am 9.5 5.7 -0.9 48 4.2 SW 9 11 5 6 1021.0 1020.7 0.0
15/01:30am 9.0 6.7 0.5 55 3.6 SW 2 15 1 8 1021.4 1021.1 0.0
15/01:00am 7.6 4.4 0.6 61 2.9 W 7 15 4 8 1021.9 1021.7 0.0
15/12:30am 7.6 4.3 0.3 60 3.0 WNW 7 15 4 8 1022.0 1021.8 0.0
15/12:00am 8.9 5.8 1.1 58 3.3 SW 7 15 4 8 1022.1 1021.9 0.0
 
Date/Time
EST
Temp
°C
App
Temp
°C
Dew
Point
°C
Rel
Hum
%
Delta-T
°C
Wind Press
QNH
hPa
Press
MSL
hPa
Rain since
9am
mm
Dir  Spd
km/h
Gust
km/h
Spd
kts
Gust
kts
14/11:30pm 8.7 5.1 0.7 57 3.4 SSW 9 17 5 9 1022.3 1022.1 0.0
14/11:00pm 8.9 5.0 0.9 57 3.4 SW 11 11 6 6 1022.5 1022.2 0.0
14/10:30pm 9.5 5.5 0.7 54 3.7 SW 11 13 6 7 1022.6 1022.3 0.0
14/10:00pm 10.4 6.8 0.4 50 4.2 SSW 9 11 5 6 1022.6 1022.3 0.0
14/09:30pm 10.1 6.4 0.2 50 4.2 SW 9 11 5 6 1022.6 1022.3 0.0
14/09:00pm 10.7 7.0 -0.1 47 4.5 SW 9 15 5 8 1022.8 1022.5 0.0
14/08:30pm 11.1 7.1 0.2 47 4.6 WSW 11 13 6 7 1022.7 1022.4 0.0
14/08:00pm 11.4 7.4 0.2 46 4.8 WSW 11 13 6 7 1022.7 1022.4 0.0
14/07:30pm 11.6 7.6 0.4 46 4.8 WSW 11 15 6 8 1022.6 1022.3 0.0
14/07:00pm 11.7 6.9 -0.1 44 5.0 SW 15 19 8 10 1022.5 1022.2 0.0
14/06:30pm 12.8 9.1 -0.1 41 5.5 SSW 9 11 5 6 1022.3 1022.1 0.0
14/06:00pm 13.3 8.8 -0.3 39 5.8 SSW 13 15 7 8 1022.2 1022.0 0.0
14/05:30pm 14.6 10.6 -2.3 31 7.0 S 9 11 5 6 1022.1 1021.9 0.0
14/05:00pm 16.3 11.9 -2.2 28 7.8 SSW 11 13 6 7 1022.0 1021.8 0.0
14/04:30pm 17.6 12.9 -2.1 26 8.5 SSW 13 19 7 10 1021.9 1021.7 0.0
14/04:00pm 18.2 13.5 -1.6 26 8.6 SSW 13 17 7 9 1021.9 1021.7 0.0
14/03:30pm 18.6 14.0 -0.7 27 8.6 S 13 20 7 11 1022.1 1021.9 0.0
14/03:00pm 18.5 13.9 -1.3 26 8.7 SSE 13 19 7 10 1022.1 1021.9 0.0
14/02:30pm 18.3 12.8 -2.0 25 8.8 SSW 17 28 9 15 1022.5 1022.2 0.0
14/02:00pm 18.1 12.7 -1.7 26 8.6 S 17 28 9 15 1022.8 1022.5 0.0
14/01:30pm 17.5 12.6 -0.7 29 8.0 SSW 15 24 8 13 1023.1 1022.9 0.0
14/01:00pm 16.5 11.3 -0.2 32 7.4 SSW 17 26 9 14 1023.3 1023.1 0.0
14/12:30pm 15.7 11.0 0.7 36 6.7 SSW 15 20 8 11 1024.2 1023.9 0.0
14/12:00pm 14.8 9.7 1.0 39 6.1 S 17 26 9 14 1024.7 1024.5 0.0
14/11:30am 14.1 10.0 2.0 44 5.5 SSW 13 24 7 13 1025.3 1025.1 0.0
14/11:00am 13.0 7.6 2.6 49 4.7 S 20 26 11 14 1025.6 1025.4 0.0
14/10:30am 11.4 6.2 2.2 53 4.1 S 19 24 10 13 1026.1 1025.9 0.0
14/10:00am 10.7 5.4 3.0 59 3.5 SSW 20 26 11 14 1026.4 1026.2 0.0
14/09:30am 10.0 4.3 3.1 62 3.1 S 22 35 12 19 1026.3 1026.1 0.0
14/09:00am 8.6 1.7 2.4 65 2.7 SSW 28 39 15 21 1026.4 1026.2 0.0
14/08:30am 7.9 1.8 2.8 70 2.2 SSW 24 35 13 19 1026.2 1026.0 0.0
14/08:00am 6.9 1.6 2.8 75 1.8 SSW 20 28 11 15 1026.2 1026.0 0.0
14/07:30am 5.9 -0.6 2.5 79 1.5 SSW 26 32 14 17 1026.0 1025.8 0.0
14/07:00am 5.4 -1.1 2.4 81 1.3 SSW 26 35 14 19 1025.8 1025.6 0.0
14/06:30am 5.1 -1.0 2.5 83 1.1 SSW 24 32 13 17 1025.6 1025.4 0.0
14/06:00am 5.1 -0.7 2.5 83 1.1 SSW 22 30 12 16 1025.4 1025.2 0.0
14/05:30am 5.3 -0.8 2.7 83 1.1 SSW 24 32 13 17 1025.2 1025.0 0.0
14/05:00am 5.1 -0.6 2.6 84 1.1 SSW 22 32 12 17 1025.1 1024.9 0.0
14/04:30am 5.5 -0.9 3.0 84 1.1 SSW 26 33 14 18 1024.9 1024.7 0.0
14/04:00am 5.6 -1.6 2.9 83 1.2 SSW 30 39 16 21 1024.9 1024.7 0.0
14/03:30am 5.7 -0.7 3.0 83 1.2 SSW 26 35 14 19 1024.7 1024.5 0.0
14/03:00am 5.8 -0.2 3.1 83 1.2 SSW 24 35 13 19 1024.8 1024.6 0.0
14/02:30am 5.8 -0.2 3.1 83 1.2 SSW 24 33 13 18 1025.0 1024.8 0.0
14/02:00am 6.1 -0.3 3.3 82 1.2 SSW 26 39 14 21 1025.2 1025.0 0.0
14/01:30am 6.0 0.3 3.0 81 1.3 SSW 22 30 12 16 1025.4 1025.2 0.0
14/01:00am 6.3 0.3 3.1 80 1.4 SSW 24 32 13 17 1025.6 1025.4 0.0
14/12:30am 6.3 0.3 3.1 80 1.4 SSW 24 32 13 17 1025.9 1025.7 0.0
14/12:00am 6.4 0.3 3.0 79 1.5 SSW 24 32 13 17 1025.8 1025.6 0.0
 
Date/Time
EST
Temp
°C
App
Temp
°C
Dew
Point
°C
Rel
Hum
%
Delta-T
°C
Wind Press
QNH
hPa
Press
MSL
hPa
Rain since
9am
mm
Dir  Spd
km/h
Gust
km/h
Spd
kts
Gust
kts
13/11:30pm 6.8 0.8 3.2 78 1.6 SSW 24 28 13 15 1026.0 1025.8 0.0
13/11:00pm 6.8 1.7 3.1 77 1.6 SSW 19 26 10 14 1026.1 1025.9 0.0
13/10:30pm 7.0 2.3 3.1 76 1.7 SSW 17 32 9 17 1026.1 1025.9 0.0

Other Formats:

Comma delimited format used in spreadsheet applications
http://www.bom.gov.au/fwo/IDN60801/IDN60801.95728.axf

JavaScript Object Notation format (JSON) in row-major order
http://www.bom.gov.au/fwo/IDN60801/IDN60801.95728.json